createdAt,value
2022-08-21T00:14:31.494Z,623
2022-08-21T00:34:31.532Z,620
2022-08-21T00:54:31.570Z,616
2022-08-21T01:34:31.683Z,625
2022-08-21T01:54:31.733Z,629
2022-08-21T02:14:32.521Z,622
2022-08-21T02:34:31.819Z,622
2022-08-21T02:54:31.853Z,621
2022-08-21T03:14:31.906Z,621
2022-08-21T03:34:31.940Z,619
2022-08-21T03:54:31.977Z,617
2022-08-21T04:14:32.020Z,615
2022-08-21T04:34:32.232Z,618
2022-08-21T04:54:32.141Z,628
2022-08-21T05:14:32.177Z,624
2022-08-21T05:34:32.226Z,622
2022-08-21T05:54:32.273Z,622
2022-08-21T06:14:32.312Z,623
2022-08-21T06:34:32.358Z,623
2022-08-21T07:14:32.433Z,626
2022-08-21T07:34:32.490Z,628
2022-08-21T08:14:32.583Z,641
2022-08-21T08:54:32.673Z,636
2022-08-21T10:34:32.883Z,637
2022-08-21T10:54:32.905Z,635
2022-08-21T11:14:41.126Z,641
2022-08-21T11:34:32.994Z,637
2022-08-21T11:54:33.017Z,631
2022-08-21T12:34:33.103Z,627
2022-08-21T12:54:41.145Z,629
2022-08-21T13:14:33.182Z,623
2022-08-21T13:34:41.229Z,621
2022-08-21T13:54:33.259Z,627
2022-08-21T14:34:41.443Z,632
2022-08-21T14:54:33.385Z,627
2022-08-21T15:14:41.413Z,619
2022-08-21T15:34:41.457Z,619
2022-08-21T15:54:33.489Z,620
2022-08-21T16:34:33.567Z,618
2022-08-21T16:54:33.610Z,624
2022-08-21T17:14:33.667Z,624
2022-08-21T17:34:41.702Z,634
2022-08-21T18:14:33.764Z,623
2022-08-21T18:34:33.934Z,624
2022-08-21T18:54:33.853Z,621
2022-08-21T19:14:33.896Z,620
2022-08-21T19:34:33.946Z,616
2022-08-21T19:54:33.977Z,616
2022-08-21T20:14:34.008Z,621
2022-08-21T20:34:34.069Z,632
2022-08-21T20:54:42.094Z,628
2022-08-21T21:14:34.260Z,623
2022-08-21T21:34:34.197Z,623
2022-08-21T22:14:34.451Z,623
2022-08-21T22:34:34.325Z,622
2022-08-21T22:54:34.366Z,618
2022-08-21T23:14:34.392Z,617
2022-08-21T23:34:34.448Z,618
2022-08-21T23:54:42.537Z,625
